createdAt,value
2023-05-03T00:01:37.699Z,9.6
2023-05-03T00:04:39.670Z,10.2
2023-05-03T00:07:41.617Z,14.1
2023-05-03T00:10:43.598Z,12.2
2023-05-03T00:13:45.588Z,8.7
2023-05-03T00:16:47.571Z,12.4
2023-05-03T00:19:49.527Z,10.7
2023-05-03T00:22:51.495Z,13.9
2023-05-03T00:25:53.446Z,11.8
2023-05-03T00:28:55.440Z,14.9
2023-05-03T00:31:57.361Z,11.4
2023-05-03T00:34:59.340Z,9
2023-05-03T00:38:01.262Z,11
2023-05-03T00:41:03.286Z,10.6
2023-05-03T00:44:05.210Z,9.9
2023-05-03T00:47:07.205Z,11.9
2023-05-03T00:50:09.146Z,11.2
2023-05-03T00:53:11.104Z,12.6
2023-05-03T00:56:13.061Z,12.2
2023-05-03T00:59:15.087Z,13.3
2023-05-03T01:02:17.002Z,10.5
2023-05-03T01:05:18.990Z,15.1
2023-05-03T01:08:20.970Z,11.6
2023-05-03T01:11:22.968Z,13.5
2023-05-03T01:14:24.888Z,11.6
2023-05-03T01:17:26.940Z,12.6
2023-05-03T01:20:28.797Z,10.6
2023-05-03T01:23:30.791Z,14.3
2023-05-03T01:26:32.713Z,11.8
2023-05-03T01:29:34.740Z,13.3
2023-05-03T01:32:36.816Z,12
2023-05-03T01:35:38.700Z,12.7
2023-05-03T01:38:40.656Z,12.1
2023-05-03T01:41:42.590Z,10.3
2023-05-03T01:44:44.570Z,14.9
2023-05-03T01:47:46.595Z,11.9
2023-05-03T01:50:48.531Z,13.1
2023-05-03T01:53:50.493Z,9.3
2023-05-03T01:56:52.441Z,12.8
2023-05-03T01:59:54.401Z,13.1
2023-05-03T02:02:56.424Z,12.3
2023-05-03T02:05:58.345Z,11.7
2023-05-03T02:09:00.316Z,9.4
2023-05-03T02:12:02.264Z,12.3
2023-05-03T02:15:04.207Z,13.6
2023-05-03T02:18:06.215Z,15.6
2023-05-03T02:21:08.119Z,12
2023-05-03T02:24:10.089Z,11.6
2023-05-03T02:27:12.035Z,12
2023-05-03T02:30:14.047Z,12.4
2023-05-03T02:33:16.008Z,13.5
2023-05-03T02:36:17.978Z,16.5
2023-05-03T02:39:19.955Z,11
2023-05-03T02:42:21.932Z,12.3
2023-05-03T02:45:23.866Z,13.4
2023-05-03T02:48:25.805Z,11.3
2023-05-03T02:51:27.818Z,15
2023-05-03T02:54:29.818Z,11.2
2023-05-03T02:57:31.760Z,12.3
2023-05-03T03:00:33.721Z,10.8
2023-05-03T03:03:35.748Z,11.5
2023-05-03T03:06:37.672Z,10
2023-05-03T03:09:39.601Z,14
2023-05-03T03:12:41.548Z,11.5
2023-05-03T03:15:43.578Z,11.6
2023-05-03T03:18:45.495Z,9.9
2023-05-03T03:21:47.436Z,13.5
2023-05-03T03:24:49.431Z,13.1
2023-05-03T03:27:51.367Z,14.2
2023-05-03T03:30:53.352Z,12.7
2023-05-03T03:33:55.342Z,10.4
2023-05-03T03:36:57.261Z,13.3
2023-05-03T03:39:59.226Z,11.3
2023-05-03T03:43:01.200Z,14.2
2023-05-03T03:46:03.209Z,11.2
2023-05-03T03:49:05.163Z,12.6
2023-05-03T03:52:07.135Z,10.5
2023-05-03T03:55:09.124Z,15.3
2023-05-03T03:58:11.108Z,10.7
2023-05-03T04:01:13.037Z,15
2023-05-03T04:04:15.077Z,13.3
2023-05-03T04:07:16.993Z,13.6
2023-05-03T04:10:18.939Z,13
2023-05-03T04:13:20.938Z,14.6
2023-05-03T04:16:22.910Z,12.2
2023-05-03T04:19:24.868Z,13.1
2023-05-03T04:22:26.781Z,12.7
2023-05-03T04:25:28.765Z,12.7
2023-05-03T04:28:30.737Z,10.5
2023-05-03T04:31:32.731Z,12.3
2023-05-03T04:34:34.631Z,12.5
2023-05-03T04:37:36.601Z,9.5
2023-05-03T04:40:38.551Z,10.6
2023-05-03T04:43:40.527Z,13.4
2023-05-03T04:46:42.547Z,10.8
2023-05-03T04:49:44.473Z,11.2
2023-05-03T04:52:46.539Z,11.1
2023-05-03T04:55:48.518Z,9.5
2023-05-03T04:58:50.458Z,16.1
2023-05-03T05:01:52.437Z,13.5
2023-05-03T05:04:54.347Z,12.1
2023-05-03T05:07:56.324Z,11.9
2023-05-03T05:10:58.262Z,14.9
2023-05-03T05:14:00.291Z,13
2023-05-03T05:17:02.200Z,11.1
2023-05-03T05:20:04.390Z,10.3
2023-05-03T05:23:06.137Z,12.9
2023-05-03T05:26:08.094Z,11.5
2023-05-03T05:29:10.066Z,12
2023-05-03T05:32:12.008Z,11.5
2023-05-03T05:35:13.992Z,13.4
2023-05-03T05:38:16.839Z,10
2023-05-03T05:41:17.885Z,9.1
2023-05-03T05:44:19.832Z,10.7
2023-05-03T05:47:22.017Z,9.1
2023-05-03T05:50:23.743Z,11.3
2023-05-03T05:53:25.776Z,9.7
2023-05-03T05:56:27.737Z,10.7
2023-05-03T05:59:29.688Z,10.1
2023-05-03T06:02:31.743Z,12.1
2023-05-03T06:05:33.692Z,8.9
2023-05-03T06:08:35.590Z,11.5
2023-05-03T06:11:37.572Z,9.8
2023-05-03T06:14:44.075Z,9.1
2023-05-03T06:17:41.582Z,8.6
2023-05-03T06:20:43.468Z,10.8
2023-05-03T06:23:45.448Z,11.3
2023-05-03T06:26:47.412Z,8
2023-05-03T06:29:49.362Z,8.8
2023-05-03T06:32:51.505Z,9
2023-05-03T06:35:53.297Z,9.1
2023-05-03T06:38:55.231Z,8.7
2023-05-03T06:41:57.232Z,6.9
2023-05-03T06:44:59.196Z,7.6
2023-05-03T06:48:01.246Z,8.7
2023-05-03T06:51:03.174Z,6
2023-05-03T06:54:05.095Z,5.4
2023-05-03T06:57:07.087Z,5.1
2023-05-03T07:00:09.048Z,5.7
2023-05-03T07:03:11.038Z,8.1
2023-05-03T07:06:12.965Z,7
2023-05-03T07:09:14.922Z,7.6
2023-05-03T07:12:16.874Z,9.7
2023-05-03T07:15:18.906Z,7.8
2023-05-03T07:18:20.903Z,9.9
2023-05-03T07:21:22.816Z,6.3
2023-05-03T07:24:24.797Z,6.1
2023-05-03T07:27:26.826Z,6.6
2023-05-03T07:30:28.748Z,6.3
2023-05-03T07:33:30.783Z,7.6
2023-05-03T07:36:32.645Z,8.9
2023-05-03T07:39:34.891Z,7.5
2023-05-03T07:42:36.820Z,6.9
2023-05-03T07:45:38.789Z,6
2023-05-03T07:48:40.777Z,5.8
2023-05-03T07:51:42.745Z,7.1
2023-05-03T07:54:47.439Z,7.2
2023-05-03T07:57:49.391Z,9.1
2023-05-03T08:00:51.551Z,7.4
2023-05-03T08:03:53.642Z,9.1
2023-05-03T08:06:55.499Z,9.4
2023-05-03T08:09:57.427Z,7.4
2023-05-03T08:12:59.348Z,8.5
2023-05-03T08:16:01.359Z,10.4
2023-05-03T08:19:03.277Z,7.9
2023-05-03T08:22:05.254Z,6.8
2023-05-03T08:25:07.272Z,7.3
2023-05-03T08:28:09.248Z,8
2023-05-03T08:31:11.512Z,6.4
2023-05-03T08:34:13.237Z,6.4
2023-05-03T08:37:15.162Z,7.8
2023-05-03T08:40:17.107Z,8.3
2023-05-03T08:43:19.062Z,8.4
2023-05-03T08:46:21.083Z,8.4
2023-05-03T08:49:23.057Z,7.5
2023-05-03T08:52:24.993Z,5.4
2023-05-03T08:55:26.924Z,6.5
2023-05-03T08:58:28.927Z,8.7
2023-05-03T09:01:30.849Z,10.4
2023-05-03T09:04:32.911Z,6.8
2023-05-03T09:07:34.764Z,6.7
2023-05-03T09:10:36.783Z,6.2
2023-05-03T09:13:38.757Z,11.7
2023-05-03T09:16:40.836Z,8.6
2023-05-03T09:19:42.671Z,6.7
2023-05-03T09:22:44.649Z,7.3
2023-05-03T09:25:46.622Z,8.4
2023-05-03T09:28:48.586Z,8.2
2023-05-03T09:31:50.577Z,7.3
2023-05-03T09:34:52.592Z,8.1
2023-05-03T09:37:54.538Z,8.5
2023-05-03T09:40:56.553Z,7
2023-05-03T09:43:58.490Z,7
2023-05-03T09:47:00.448Z,6.7
2023-05-03T09:50:02.449Z,9.3
2023-05-03T09:53:04.448Z,7.8
2023-05-03T09:56:06.389Z,8.8
2023-05-03T09:59:08.384Z,5.3
2023-05-03T10:02:10.308Z,9.5
2023-05-03T10:05:12.263Z,6.3
2023-05-03T10:08:14.267Z,7.6
2023-05-03T10:11:16.257Z,5.6
2023-05-03T10:14:18.159Z,8.1
2023-05-03T10:17:20.252Z,6.8
2023-05-03T10:20:22.065Z,5.8
2023-05-03T10:23:24.098Z,8.4
2023-05-03T10:26:29.147Z,5.7
2023-05-03T10:29:31.169Z,7.7
2023-05-03T10:32:33.148Z,8.4
2023-05-03T10:35:35.040Z,8.1
2023-05-03T10:38:37.011Z,7.4
2023-05-03T10:41:38.959Z,7.6
2023-05-03T10:44:40.938Z,8.8
2023-05-03T10:47:42.933Z,9.3
2023-05-03T10:50:44.885Z,5.7
2023-05-03T10:53:46.857Z,7.1
2023-05-03T10:56:48.868Z,7.4
2023-05-03T10:59:50.800Z,5.2
2023-05-03T11:02:52.770Z,5.5
2023-05-03T11:05:54.753Z,6.1
2023-05-03T11:08:56.730Z,7.8
2023-05-03T11:11:58.699Z,6.6
2023-05-03T11:15:00.746Z,5.6
2023-05-03T11:18:02.654Z,5.8
2023-05-03T11:21:04.590Z,6.2
2023-05-03T11:24:06.522Z,5.5
2023-05-03T11:27:08.826Z,4.5
2023-05-03T11:30:10.462Z,4.7
2023-05-03T11:33:12.437Z,4.1
2023-05-03T11:36:14.381Z,4
2023-05-03T11:39:17.585Z,5.3
2023-05-03T11:42:18.336Z,5.5
2023-05-03T11:45:23.421Z,6.8
2023-05-03T11:48:25.093Z,4.8
2023-05-03T11:51:27.115Z,5.4
2023-05-03T11:54:29.066Z,4.2
2023-05-03T11:57:31.033Z,7.1
2023-05-03T12:00:33.053Z,6.6
2023-05-03T12:03:35.020Z,5.7
2023-05-03T12:06:37.805Z,5.9
2023-05-03T12:09:39.927Z,5.3
2023-05-03T12:12:43.733Z,4.7
2023-05-03T12:15:43.667Z,6.2
2023-05-03T12:18:46.693Z,6.2
2023-05-03T12:21:58.713Z,4.8
2023-05-03T12:24:49.556Z,3.2
2023-05-03T12:28:06.866Z,4.6
2023-05-03T12:30:53.625Z,5
2023-05-03T12:34:19.198Z,4.6
2023-05-03T12:36:59.121Z,2.8
2023-05-03T12:40:18.592Z,5.3
2023-05-03T12:43:00.927Z,8.6
2023-05-03T12:49:07.051Z,2.4
2023-05-03T12:52:35.149Z,4.9
2023-05-03T13:01:37.706Z,4.3
2023-05-03T13:07:16.937Z,5.2
2023-05-03T13:13:20.630Z,3.7
2023-05-03T13:16:22.626Z,3.6
2023-05-03T13:19:24.588Z,3.9
2023-05-03T13:22:26.583Z,4
2023-05-03T13:25:28.572Z,4.5
2023-05-03T13:28:30.522Z,4.9
2023-05-03T13:31:32.554Z,4.1
2023-05-03T13:34:34.441Z,3.1
2023-05-03T13:37:36.428Z,4.1
2023-05-03T13:40:38.379Z,4.1
2023-05-03T13:43:40.318Z,3.4
2023-05-03T13:46:42.403Z,2.6
2023-05-03T13:49:44.326Z,4.4
2023-05-03T13:52:46.310Z,4.2
2023-05-03T13:55:48.288Z,4
2023-05-03T13:58:50.371Z,3.9
2023-05-03T14:01:52.457Z,4.2
2023-05-03T14:04:54.210Z,9
2023-05-03T14:07:56.188Z,3.1
2023-05-03T14:10:58.157Z,4.7
2023-05-03T14:14:00.327Z,4.2
2023-05-03T14:17:02.129Z,4.5
2023-05-03T14:20:04.185Z,3.2
2023-05-03T14:23:05.955Z,3.5
2023-05-03T14:26:07.947Z,2.3
2023-05-03T14:29:09.892Z,2.7
2023-05-03T14:32:11.824Z,2.8
2023-05-03T14:35:13.799Z,2.6
2023-05-03T14:38:15.797Z,6.2
2023-05-03T14:41:17.751Z,3.4
2023-05-03T14:44:19.691Z,4.7
2023-05-03T14:47:21.678Z,6.1
2023-05-03T14:50:23.690Z,4.6
2023-05-03T14:53:25.641Z,2.4
2023-05-03T14:56:27.570Z,2.5
2023-05-03T14:59:29.521Z,5
2023-05-03T15:02:31.591Z,7.6
2023-05-03T15:05:33.472Z,4.7
2023-05-03T15:08:35.464Z,3
2023-05-03T15:11:37.448Z,4.9
2023-05-03T15:14:39.454Z,2.7
2023-05-03T15:17:41.408Z,2.8
2023-05-03T15:20:43.335Z,4.4
2023-05-03T15:23:45.324Z,4.7
2023-05-03T15:26:47.240Z,4.9
2023-05-03T15:29:49.243Z,3.6
2023-05-03T15:32:51.217Z,3
2023-05-03T15:35:53.150Z,3.2
2023-05-03T15:38:55.133Z,4.1
2023-05-03T15:41:57.089Z,4.1
2023-05-03T15:44:59.071Z,3.7
2023-05-03T15:48:01.066Z,4.1
2023-05-03T15:51:03.007Z,3.7
2023-05-03T15:54:04.936Z,3.8
2023-05-03T15:57:06.940Z,3.3
2023-05-03T16:00:08.877Z,4
2023-05-03T16:03:10.907Z,3.9
2023-05-03T16:06:12.770Z,4.8
2023-05-03T16:09:14.766Z,5.4
2023-05-03T16:12:16.720Z,2.3
2023-05-03T16:15:18.680Z,4
2023-05-03T16:18:20.657Z,3.1
2023-05-03T16:21:22.626Z,2
2023-05-03T16:24:24.583Z,4.5
2023-05-03T16:27:26.515Z,3.3
2023-05-03T16:30:28.552Z,3.8
2023-05-03T16:33:30.479Z,3.4
2023-05-03T16:36:32.406Z,4.4
2023-05-03T16:39:34.389Z,2.4
2023-05-03T16:42:36.325Z,2.6
2023-05-03T16:45:38.351Z,4.5
2023-05-03T16:48:40.258Z,3.2
2023-05-03T16:51:42.222Z,1.8
2023-05-03T16:54:44.205Z,2.1
2023-05-03T16:57:46.140Z,1.5
2023-05-03T17:00:48.146Z,2.8
2023-05-03T17:03:50.115Z,2.2
2023-05-03T17:06:52.042Z,3.5
2023-05-03T17:09:53.999Z,3.3
2023-05-03T17:12:55.959Z,2.2
2023-05-03T17:15:57.937Z,2.2
2023-05-03T17:18:59.886Z,3.3
2023-05-03T17:22:01.848Z,2.9
2023-05-03T17:25:03.957Z,2.2
2023-05-03T17:28:05.955Z,3.7
2023-05-03T17:31:07.818Z,3.8
2023-05-03T17:34:09.724Z,4
2023-05-03T17:37:11.668Z,2.8
2023-05-03T17:40:13.606Z,3.5
2023-05-03T17:43:15.613Z,2.8
2023-05-03T17:46:17.571Z,4.2
2023-05-03T17:49:19.489Z,2.4
2023-05-03T17:52:21.507Z,3.8
2023-05-03T17:55:23.437Z,1.5
2023-05-03T17:58:25.371Z,1.7
2023-05-03T18:01:27.360Z,2.9
2023-05-03T18:04:29.366Z,3.4
2023-05-03T18:07:31.309Z,3
2023-05-03T18:10:33.237Z,3.1
2023-05-03T18:13:35.180Z,2.4
2023-05-03T18:16:37.421Z,2.1
2023-05-03T18:19:39.121Z,3.7
2023-05-03T18:22:41.063Z,2.1
2023-05-03T18:25:43.014Z,2.1
2023-05-03T18:28:45.077Z,2
2023-05-03T18:31:47.197Z,2.1
2023-05-03T18:34:49.036Z,2.3
2023-05-03T18:37:50.993Z,2.8
2023-05-03T18:40:52.926Z,3
2023-05-03T18:43:54.897Z,4.1
2023-05-03T18:46:56.885Z,4.5
2023-05-03T18:49:58.864Z,3.4
2023-05-03T18:53:00.785Z,3.7
2023-05-03T18:56:02.807Z,5.9
2023-05-03T18:59:04.710Z,2.5
2023-05-03T19:02:06.675Z,2.5
2023-05-03T19:05:08.615Z,2.9
2023-05-03T19:08:10.592Z,3.2
2023-05-03T19:11:12.554Z,4.4
2023-05-03T19:14:14.523Z,2.5
2023-05-03T19:17:16.478Z,2.7
2023-05-03T19:20:18.463Z,3.8
2023-05-03T19:23:20.641Z,1.9
2023-05-03T19:26:22.414Z,3.7
2023-05-03T19:29:24.360Z,3
2023-05-03T19:32:26.315Z,4.1
2023-05-03T19:35:28.280Z,5.1
2023-05-03T19:38:30.275Z,2
2023-05-03T19:41:32.224Z,3.7
2023-05-03T19:44:34.193Z,3.6
2023-05-03T19:47:36.208Z,3.4
2023-05-03T19:50:38.134Z,2.5
2023-05-03T19:53:40.129Z,4.4
2023-05-03T19:56:42.072Z,3.1
2023-05-03T19:59:44.059Z,4.6
2023-05-03T20:02:46.002Z,2.7
2023-05-03T20:05:47.942Z,2
2023-05-03T20:08:49.899Z,3.3
2023-05-03T20:11:51.896Z,2.8
2023-05-03T20:14:53.862Z,2.5
2023-05-03T20:17:55.870Z,5.2
2023-05-03T20:20:57.737Z,3.5
2023-05-03T20:23:59.733Z,2.2
2023-05-03T20:27:01.688Z,3.9
2023-05-03T20:30:03.871Z,4.5
2023-05-03T20:33:05.631Z,3.8
2023-05-03T20:36:07.558Z,2
2023-05-03T20:39:09.512Z,5.2
2023-05-03T20:42:11.478Z,4.1
2023-05-03T20:45:13.412Z,3.2
2023-05-03T20:48:15.424Z,4.2
2023-05-03T20:51:17.432Z,6.5
2023-05-03T20:54:19.338Z,3.3
2023-05-03T20:57:21.315Z,2.2
2023-05-03T21:00:23.307Z,3.5
2023-05-03T21:03:25.389Z,4.2
2023-05-03T21:06:27.205Z,2.7
2023-05-03T21:09:29.150Z,2.5
2023-05-03T21:12:31.129Z,3.9
2023-05-03T21:15:33.096Z,2.4
2023-05-03T21:18:35.002Z,3.8
2023-05-03T21:21:36.980Z,4
2023-05-03T21:24:38.964Z,3.9
2023-05-03T21:27:40.906Z,3.9
2023-05-03T21:30:42.897Z,5.5
2023-05-03T21:33:44.885Z,3.8
2023-05-03T21:36:46.841Z,5.4
2023-05-03T21:39:57.974Z,2.4
2023-05-03T21:42:50.750Z,4.5
2023-05-03T21:45:54.191Z,3.4
2023-05-03T21:48:54.687Z,4
2023-05-03T21:51:56.625Z,5.4
2023-05-03T21:54:58.600Z,4.3
2023-05-03T21:58:00.521Z,5.2
2023-05-03T22:01:02.520Z,3.9
2023-05-03T22:04:04.658Z,5.3
2023-05-03T22:07:06.421Z,5.1
2023-05-03T22:10:08.403Z,4.5
2023-05-03T22:13:10.352Z,4.4
2023-05-03T22:16:12.335Z,4.3
2023-05-03T22:19:14.239Z,2.9
2023-05-03T22:22:16.206Z,5.2
2023-05-03T22:25:18.173Z,5
2023-05-03T22:28:20.148Z,6
2023-05-03T22:31:22.138Z,3.5
2023-05-03T22:34:24.053Z,3.8
2023-05-03T22:37:26.017Z,3.9
2023-05-03T22:40:27.973Z,5.3
2023-05-03T22:43:29.928Z,3.1
2023-05-03T22:46:31.920Z,3.3
2023-05-03T22:49:33.878Z,7.2
2023-05-03T22:52:35.857Z,3.8
2023-05-03T22:55:37.782Z,6.5
2023-05-03T22:58:39.770Z,3.3
2023-05-03T23:01:41.726Z,5.5
2023-05-03T23:04:43.697Z,4.3
2023-05-03T23:07:45.637Z,4.7
2023-05-03T23:10:47.591Z,2.9
2023-05-03T23:13:49.565Z,4.2
2023-05-03T23:16:51.577Z,4.2
2023-05-03T23:19:53.504Z,2.5
2023-05-03T23:22:55.448Z,5
2023-05-03T23:25:57.410Z,4.5
2023-05-03T23:28:59.396Z,4.6
2023-05-03T23:32:01.407Z,5.5
2023-05-03T23:35:03.357Z,4.4
2023-05-03T23:38:05.330Z,4.6
2023-05-03T23:41:07.243Z,4.6
2023-05-03T23:44:09.252Z,4.3
2023-05-03T23:47:11.174Z,4.5
2023-05-03T23:50:13.151Z,4.1
2023-05-03T23:53:15.119Z,4.8
2023-05-03T23:56:17.083Z,5.4
2023-05-03T23:59:19.061Z,5.2
